Terminal Aerodrome Forecast
Issued by NWS

Home | Current Version | Previous Version | Text Only | Print | Product List | Glossary On
Versions: 1 2 3 4 5 6 7 8 9 10 11 12 13
000
FTUS43 KTOP 031100
TAFMHK
TAF
KMHK 031123Z 0312/0412 20010KT P6SM BKN150
     FM031400 20016G23KT P6SM FEW150
     FM040000 19009KT P6SM BKN150
     FM040500 19009KT P6SM VCTS BKN050CB=

USA.gov is the U.S. government's official web portal to all federal, state and local government web resources and services.